createdAt,value
2023-02-26T00:02:10.856Z,5.30
2023-02-26T00:04:40.731Z,6.20
2023-02-26T00:07:10.212Z,4.35
2023-02-26T00:09:39.682Z,5.03
2023-02-26T00:12:13.495Z,4.50
2023-02-26T00:14:43.729Z,5.63
2023-02-26T00:17:29.523Z,7.32
2023-02-26T00:19:59.744Z,5.20
2023-02-26T00:22:29.867Z,5.97
2023-02-26T00:24:59.388Z,5.37
2023-02-26T00:27:31.404Z,6.25
2023-02-26T00:30:01.629Z,6.10
2023-02-26T00:32:32.280Z,8.05
2023-02-26T00:35:02.397Z,5.72
2023-02-26T00:37:39.342Z,5.70
2023-02-26T00:40:17.942Z,7.15
2023-02-26T00:42:50.611Z,8.10
2023-02-26T00:45:20.944Z,6.78
2023-02-26T00:47:52.430Z,6.05
2023-02-26T00:50:23.007Z,7.10
2023-02-26T00:53:06.159Z,7.70
2023-02-26T00:55:35.611Z,6.78
2023-02-26T00:58:07.734Z,7.40
2023-02-26T01:00:37.283Z,8.30
2023-02-26T01:03:07.386Z,8.45
2023-02-26T01:05:37.263Z,7.13
2023-02-26T01:08:08.409Z,7.70
2023-02-26T01:10:38.647Z,7.53
2023-02-26T01:13:12.329Z,9.43
2023-02-26T01:15:42.921Z,7.20
2023-02-26T01:18:14.659Z,4.80
2023-02-26T01:20:46.453Z,5.20
2023-02-26T01:23:16.943Z,7.40
2023-02-26T01:25:48.620Z,9.68
2023-02-26T01:28:21.400Z,7.88
2023-02-26T01:30:51.367Z,7.22
2023-02-26T01:33:24.365Z,8.07
2023-02-26T01:35:55.262Z,7.15
2023-02-26T01:38:28.936Z,9.00
2023-02-26T01:41:15.573Z,7.60
2023-02-26T01:43:53.016Z,6.18
2023-02-26T01:46:25.847Z,7.07
2023-02-26T01:48:56.621Z,7.53
2023-02-26T01:51:45.353Z,9.07
2023-02-26T01:54:14.846Z,7.15
2023-02-26T01:56:44.617Z,7.22
2023-02-26T01:59:17.870Z,7.90
2023-02-26T02:01:47.356Z,7.20
2023-02-26T02:04:17.562Z,7.63
2023-02-26T02:06:47.058Z,7.50
2023-02-26T02:09:16.546Z,7.47
2023-02-26T02:12:03.319Z,6.88
2023-02-26T02:14:41.527Z,8.32
2023-02-26T02:17:12.620Z,7.25
2023-02-26T02:20:12.435Z,7.15
2023-02-26T02:22:49.523Z,8.00
2023-02-26T02:25:31.280Z,7.13
2023-02-26T02:28:02.736Z,8.77
2023-02-26T02:30:39.601Z,11.02
2023-02-26T02:33:14.122Z,8.73
2023-02-26T02:35:44.567Z,8.82
2023-02-26T02:38:15.292Z,7.32
2023-02-26T02:40:48.802Z,7.47
2023-02-26T02:43:19.727Z,8.88
2023-02-26T02:45:51.637Z,8.70
2023-02-26T02:48:26.850Z,8.35
2023-02-26T02:50:57.938Z,8.80
2023-02-26T02:53:29.720Z,8.10
2023-02-26T02:56:00.577Z,8.38
2023-02-26T02:58:32.136Z,7.78
2023-02-26T03:01:04.646Z,10.25
2023-02-26T03:03:38.175Z,10.10
2023-02-26T03:06:08.027Z,8.50
2023-02-26T03:08:41.347Z,7.72
2023-02-26T03:11:10.972Z,8.73
2023-02-26T03:13:40.427Z,8.05
2023-02-26T03:16:22.753Z,7.72
2023-02-26T03:19:04.648Z,7.55
2023-02-26T03:21:36.904Z,7.32
2023-02-26T03:24:09.911Z,9.27
2023-02-26T03:26:42.963Z,7.63
2023-02-26T03:29:14.169Z,6.25
2023-02-26T03:31:47.260Z,7.30
2023-02-26T03:34:21.676Z,7.97
2023-02-26T03:36:53.815Z,10.52
2023-02-26T03:39:24.928Z,8.13
2023-02-26T03:41:56.600Z,7.03
2023-02-26T03:44:27.687Z,8.18
2023-02-26T03:46:59.605Z,8.00
2023-02-26T03:49:34.553Z,8.65
2023-02-26T03:52:04.838Z,7.18
2023-02-26T03:54:35.803Z,6.97
2023-02-26T03:59:34.949Z,7.60
2023-02-26T04:02:06.665Z,6.15
2023-02-26T04:04:42.397Z,6.25
2023-02-26T04:07:11.982Z,8.48
2023-02-26T04:09:43.130Z,8.30
2023-02-26T04:12:12.736Z,7.00
2023-02-26T04:14:42.138Z,6.97
2023-02-26T04:17:11.624Z,9.02
2023-02-26T04:19:43.886Z,7.15
2023-02-26T04:22:13.434Z,7.40
2023-02-26T04:24:42.905Z,7.55
2023-02-26T04:27:12.418Z,6.85
2023-02-26T04:29:41.942Z,9.00
2023-02-26T04:32:11.584Z,6.45
2023-02-26T04:34:43.797Z,7.00
2023-02-26T04:37:13.482Z,8.10
2023-02-26T04:39:42.911Z,6.63
2023-02-26T04:42:12.630Z,5.47
2023-02-26T04:44:42.066Z,6.35
2023-02-26T04:47:11.822Z,9.25
2023-02-26T04:49:44.015Z,5.80
2023-02-26T04:52:13.489Z,7.28
2023-02-26T04:54:43.425Z,7.07
2023-02-26T04:57:12.878Z,5.30
2023-02-26T04:59:42.457Z,7.18
2023-02-26T05:02:12.574Z,6.65
2023-02-26T05:04:44.763Z,7.07
2023-02-26T05:07:14.548Z,5.18
2023-02-26T05:09:44.039Z,5.95
2023-02-26T05:12:13.539Z,7.68
2023-02-26T05:14:43.042Z,5.32
2023-02-26T05:17:12.782Z,6.85
2023-02-26T05:19:44.833Z,4.93
2023-02-26T05:22:14.341Z,5.93
2023-02-26T05:24:43.830Z,5.25
2023-02-26T05:27:13.341Z,6.43
2023-02-26T05:29:44.974Z,4.30
2023-02-26T05:32:14.523Z,4.95
2023-02-26T05:34:46.728Z,5.38
2023-02-26T05:37:16.206Z,4.82
2023-02-26T05:39:45.866Z,4.97
2023-02-26T05:42:15.312Z,4.43
2023-02-26T05:44:44.790Z,6.65
2023-02-26T05:47:14.255Z,7.07
2023-02-26T05:49:46.501Z,3.83
2023-02-26T05:52:16.056Z,5.07
2023-02-26T05:54:45.504Z,5.00
2023-02-26T05:57:14.967Z,4.63
2023-02-26T05:59:44.476Z,7.65
2023-02-26T06:02:14.311Z,5.82
2023-02-26T06:04:46.523Z,6.22
2023-02-26T06:07:16.008Z,5.55
2023-02-26T06:09:45.462Z,4.10
2023-02-26T06:12:15.257Z,5.25
2023-02-26T06:14:44.925Z,6.88
2023-02-26T06:17:14.363Z,5.35
2023-02-26T06:19:46.555Z,7.10
2023-02-26T06:22:16.011Z,4.43
2023-02-26T06:24:45.470Z,5.38
2023-02-26T06:27:15.069Z,4.43
2023-02-26T06:29:44.555Z,6.00
2023-02-26T06:32:14.119Z,6.55
2023-02-26T06:34:46.366Z,5.65
2023-02-26T06:37:16.464Z,5.38
2023-02-26T06:39:46.163Z,6.47
2023-02-26T06:42:15.579Z,4.95
2023-02-26T06:44:45.038Z,4.22
2023-02-26T06:47:14.542Z,5.18
2023-02-26T06:49:46.692Z,6.20
2023-02-26T06:52:16.146Z,6.03
2023-02-26T06:54:45.784Z,5.07
2023-02-26T06:57:15.311Z,4.75
2023-02-26T06:59:44.899Z,6.30
2023-02-26T07:02:17.981Z,5.00
2023-02-26T07:04:50.069Z,6.40
2023-02-26T07:07:19.615Z,5.80
2023-02-26T07:09:49.402Z,5.65
2023-02-26T07:12:18.930Z,5.05
2023-02-26T07:14:48.602Z,6.82
2023-02-26T07:17:20.526Z,7.03
2023-02-26T07:19:53.605Z,5.20
2023-02-26T07:22:23.108Z,6.70
2023-02-26T07:24:52.563Z,6.45
2023-02-26T07:27:22.229Z,5.75
2023-02-26T07:29:51.679Z,5.47
2023-02-26T07:32:21.121Z,7.00
2023-02-26T07:34:53.307Z,8.02
2023-02-26T07:37:22.768Z,5.35
2023-02-26T07:39:52.371Z,5.65
2023-02-26T07:42:21.818Z,5.72
2023-02-26T07:44:51.255Z,6.35
2023-02-26T07:47:20.880Z,5.95
2023-02-26T07:49:52.934Z,5.05
2023-02-26T07:52:22.416Z,6.40
2023-02-26T07:54:51.838Z,4.93
2023-02-26T07:57:21.476Z,5.60
2023-02-26T07:59:50.972Z,5.22
2023-02-26T08:02:20.457Z,4.93
2023-02-26T08:04:49.896Z,6.60
2023-02-26T08:07:22.029Z,4.47
2023-02-26T08:09:51.461Z,5.13
2023-02-26T08:12:20.933Z,4.45
2023-02-26T08:14:50.596Z,5.65
2023-02-26T08:17:20.052Z,2.63
2023-02-26T08:19:49.505Z,4.80
2023-02-26T08:22:19.181Z,7.60
2023-02-26T08:24:51.306Z,8.18
2023-02-26T08:27:21.943Z,5.47
2023-02-26T08:29:51.602Z,6.22
2023-02-26T08:32:23.055Z,3.60
2023-02-26T08:34:52.764Z,4.38
2023-02-26T08:37:22.731Z,5.80
2023-02-26T08:39:54.936Z,4.10
2023-02-26T08:42:24.401Z,5.22
2023-02-26T08:44:53.904Z,5.78
2023-02-26T08:47:28.722Z,4.25
2023-02-26T08:49:59.083Z,3.42
2023-02-26T08:52:28.733Z,4.82
2023-02-26T08:55:01.192Z,5.35
2023-02-26T08:57:30.628Z,4.03
2023-02-26T09:00:00.163Z,4.55
2023-02-26T09:02:29.826Z,4.68
2023-02-26T09:04:59.314Z,3.97
2023-02-26T09:07:28.784Z,6.10
2023-02-26T09:10:00.943Z,5.50
2023-02-26T09:12:30.488Z,3.78
2023-02-26T09:15:00.731Z,6.30
2023-02-26T09:17:30.662Z,5.75
2023-02-26T09:20:00.240Z,3.53
2023-02-26T09:22:29.689Z,3.45
2023-02-26T09:25:01.951Z,4.72
2023-02-26T09:27:31.490Z,4.63
2023-02-26T09:30:01.123Z,6.43
2023-02-26T09:32:30.916Z,5.55
2023-02-26T09:35:00.518Z,5.28
2023-02-26T09:37:30.046Z,3.13
2023-02-26T09:40:03.334Z,3.75
2023-02-26T09:42:40.584Z,3.15
2023-02-26T09:45:13.050Z,3.70
2023-02-26T09:47:46.718Z,3.78
2023-02-26T09:50:19.260Z,4.25
2023-02-26T09:52:51.773Z,6.93
2023-02-26T09:55:29.618Z,2.63
2023-02-26T09:58:00.646Z,3.55
2023-02-26T10:03:06.907Z,2.83
2023-02-26T10:05:41.052Z,3.42
2023-02-26T10:08:13.966Z,4.35
2023-02-26T10:10:50.787Z,4.25
2023-02-26T10:13:25.351Z,3.22
2023-02-26T10:15:55.319Z,2.40
2023-02-26T10:18:27.040Z,5.22
2023-02-26T10:20:58.211Z,2.88
2023-02-26T10:23:31.647Z,3.42
2023-02-26T10:26:07.394Z,2.88
2023-02-26T10:28:49.053Z,4.15
2023-02-26T10:31:25.216Z,3.47
2023-02-26T10:34:02.809Z,2.63
2023-02-26T10:36:35.482Z,2.85
2023-02-26T10:39:06.467Z,2.88
2023-02-26T10:44:09.634Z,4.40
2023-02-26T10:46:42.927Z,6.18
2023-02-26T10:49:28.557Z,2.53
2023-02-26T10:51:57.976Z,3.85
2023-02-26T10:54:32.612Z,3.60
2023-02-26T10:57:04.679Z,2.92
2023-02-26T10:59:34.215Z,3.97
2023-02-26T11:02:03.835Z,4.88
2023-02-26T11:04:33.292Z,4.10
2023-02-26T11:07:15.752Z,3.88
2023-02-26T11:09:47.503Z,2.78
2023-02-26T11:12:19.805Z,3.88
2023-02-26T11:14:50.607Z,2.45
2023-02-26T11:17:22.292Z,1.90
2023-02-26T11:19:56.834Z,3.75
2023-02-26T11:22:26.533Z,3.33
2023-02-26T11:24:55.993Z,3.70
2023-02-26T11:27:29.406Z,3.08
2023-02-26T11:30:00.402Z,3.90
2023-02-26T11:32:33.257Z,2.47
2023-02-26T11:35:02.820Z,1.90
2023-02-26T11:37:32.891Z,4.78
2023-02-26T11:40:04.014Z,4.10
2023-02-26T11:45:08.524Z,2.42
2023-02-26T11:47:37.958Z,3.85
2023-02-26T11:50:13.696Z,2.28
2023-02-26T11:52:44.540Z,4.32
2023-02-26T11:55:24.410Z,2.65
2023-02-26T11:57:57.109Z,2.47
2023-02-26T12:00:33.396Z,3.47
2023-02-26T12:03:04.542Z,4.75
2023-02-26T12:08:03.348Z,3.55
2023-02-26T12:10:36.022Z,2.58
2023-02-26T12:13:12.721Z,1.88
2023-02-26T12:15:45.779Z,3.03
2023-02-26T12:18:33.434Z,2.53
2023-02-26T12:21:13.878Z,2.20
2023-02-26T12:24:03.021Z,2.85
2023-02-26T12:26:33.068Z,3.50
2023-02-26T12:29:12.978Z,3.65
2023-02-26T12:31:59.334Z,2.78
2023-02-26T12:34:42.802Z,1.98
2023-02-26T12:37:30.535Z,2.40
2023-02-26T12:40:06.494Z,2.80
2023-02-26T12:42:42.776Z,1.50
2023-02-26T12:45:23.648Z,4.45
2023-02-26T12:48:01.357Z,2.08
2023-02-26T12:50:44.145Z,4.32
2023-02-26T12:53:26.596Z,2.08
2023-02-26T12:56:07.266Z,2.13
2023-02-26T12:58:46.647Z,2.60
2023-02-26T13:01:38.640Z,3.13
2023-02-26T13:04:39.974Z,2.42
2023-02-26T13:09:55.690Z,2.03
2023-02-26T13:12:34.695Z,2.95
2023-02-26T13:15:10.895Z,2.60
2023-02-26T13:17:44.699Z,2.22
2023-02-26T13:20:16.189Z,1.75
2023-02-26T13:22:48.581Z,5.13
2023-02-26T13:25:21.216Z,2.38
2023-02-26T13:27:50.665Z,1.75
2023-02-26T13:30:25.819Z,2.03
2023-02-26T13:32:59.377Z,1.52
2023-02-26T13:35:30.590Z,1.90
2023-02-26T13:38:00.822Z,2.83
2023-02-26T13:40:49.485Z,2.00
2023-02-26T13:43:27.035Z,2.72
2023-02-26T13:46:01.625Z,4.22
2023-02-26T13:48:48.767Z,2.03
2023-02-26T13:51:25.924Z,1.60
2023-02-26T13:53:57.163Z,2.05
2023-02-26T13:59:35.946Z,2.80
2023-02-26T14:02:06.476Z,4.85
2023-02-26T14:04:53.083Z,2.97
2023-02-26T14:07:48.581Z,1.92
2023-02-26T14:10:18.955Z,2.65
2023-02-26T14:12:48.420Z,3.25
2023-02-26T14:15:26.947Z,2.58
2023-02-26T14:18:04.310Z,2.95
2023-02-26T14:20:37.507Z,7.60
2023-02-26T14:23:36.427Z,3.08
2023-02-26T14:26:14.324Z,2.33
2023-02-26T14:28:46.344Z,2.97
2023-02-26T14:31:22.339Z,4.28
2023-02-26T14:34:02.272Z,2.50
2023-02-26T14:36:36.650Z,1.50
2023-02-26T14:39:09.294Z,4.13
2023-02-26T14:41:41.393Z,2.97
2023-02-26T14:44:14.938Z,4.13
2023-02-26T14:46:44.500Z,2.80
2023-02-26T14:52:46.600Z,2.47
2023-02-26T14:55:39.830Z,2.25
2023-02-26T14:58:35.338Z,3.05
2023-02-26T15:01:20.826Z,2.00
2023-02-26T15:04:17.318Z,1.95
2023-02-26T15:06:57.005Z,2.58
2023-02-26T15:09:31.078Z,3.40
2023-02-26T15:12:07.089Z,3.40
2023-02-26T15:14:53.429Z,2.05
2023-02-26T15:17:31.983Z,1.50
2023-02-26T15:20:09.019Z,3.28
2023-02-26T15:22:46.745Z,3.08
2023-02-26T15:25:26.528Z,1.58
2023-02-26T15:27:56.084Z,3.33
2023-02-26T15:30:26.027Z,1.30
2023-02-26T15:32:59.847Z,2.15
2023-02-26T15:35:30.785Z,2.33
2023-02-26T15:38:02.437Z,2.55
2023-02-26T15:40:35.725Z,2.55
2023-02-26T15:43:05.193Z,1.75
2023-02-26T15:45:36.145Z,2.50
2023-02-26T15:48:07.417Z,1.73
2023-02-26T15:50:38.899Z,7.10
2023-02-26T15:53:08.562Z,1.92
2023-02-26T15:55:50.569Z,3.15
2023-02-26T15:58:23.164Z,3.67
2023-02-26T16:00:55.599Z,2.08
2023-02-26T16:03:31.508Z,2.17
2023-02-26T16:06:01.157Z,3.65
2023-02-26T16:08:30.639Z,3.35
2023-02-26T16:11:02.747Z,2.53
2023-02-26T16:13:37.160Z,2.65
2023-02-26T16:16:10.034Z,3.20
2023-02-26T16:18:39.722Z,4.22
2023-02-26T16:21:09.778Z,4.07
2023-02-26T16:23:44.624Z,3.22
2023-02-26T16:26:19.933Z,1.73
2023-02-26T16:28:49.758Z,3.00
2023-02-26T16:31:21.237Z,3.35
2023-02-26T16:33:56.102Z,2.78
2023-02-26T16:36:27.536Z,2.80
2023-02-26T16:39:02.734Z,2.70
2023-02-26T16:41:37.637Z,5.85
2023-02-26T16:44:08.143Z,4.18
2023-02-26T16:46:43.178Z,3.08
2023-02-26T16:49:15.454Z,2.25
2023-02-26T16:51:45.197Z,3.55
2023-02-26T16:54:18.655Z,5.30
2023-02-26T16:56:51.986Z,5.47
2023-02-26T16:59:22.973Z,6.20
2023-02-26T17:04:26.831Z,5.75
2023-02-26T17:06:56.312Z,13.45
2023-02-26T17:09:37.086Z,8.07
2023-02-26T17:12:16.188Z,12.05
2023-02-26T17:14:46.509Z,9.32
2023-02-26T17:17:16.311Z,9.18
2023-02-26T17:19:45.801Z,9.18
2023-02-26T17:22:19.018Z,3.15
2023-02-26T17:24:49.478Z,7.20
2023-02-26T17:27:39.406Z,5.20
2023-02-26T17:30:11.833Z,4.45
2023-02-26T17:32:41.421Z,7.22
2023-02-26T17:35:11.661Z,4.50
2023-02-26T17:37:41.149Z,2.60
2023-02-26T17:40:19.673Z,4.55
2023-02-26T17:42:52.039Z,2.85
2023-02-26T17:45:22.891Z,2.40
2023-02-26T17:47:52.768Z,2.47
2023-02-26T17:50:37.845Z,4.22
2023-02-26T17:53:08.245Z,5.35
2023-02-26T17:55:39.529Z,5.18
2023-02-26T17:58:17.087Z,2.42
2023-02-26T18:00:53.121Z,4.07
2023-02-26T18:03:23.057Z,4.28
2023-02-26T18:05:52.692Z,3.65
2023-02-26T18:08:23.951Z,4.28
2023-02-26T18:10:53.747Z,4.88
2023-02-26T18:13:25.864Z,2.65
2023-02-26T18:15:56.606Z,3.35
2023-02-26T18:18:26.679Z,4.07
2023-02-26T18:20:56.173Z,1.77
2023-02-26T18:23:25.803Z,2.67
2023-02-26T18:25:56.615Z,3.25
2023-02-26T18:28:29.611Z,2.53
2023-02-26T18:30:59.842Z,4.75
2023-02-26T18:33:29.483Z,2.97
2023-02-26T18:35:59.499Z,3.42
2023-02-26T18:38:29.992Z,5.45
2023-02-26T18:41:01.931Z,3.65
2023-02-26T18:43:34.475Z,3.95
2023-02-26T18:46:04.030Z,1.40
2023-02-26T18:48:33.567Z,1.60
2023-02-26T18:51:03.520Z,3.13
2023-02-26T18:53:34.131Z,3.05
2023-02-26T18:56:03.861Z,1.35
2023-02-26T18:58:35.971Z,4.72
2023-02-26T19:01:05.647Z,5.13
2023-02-26T19:03:35.520Z,3.25
2023-02-26T19:06:06.195Z,3.30
2023-02-26T19:08:35.630Z,3.65
2023-02-26T19:11:05.095Z,4.13
2023-02-26T19:13:37.454Z,3.25
2023-02-26T19:16:07.492Z,3.33
2023-02-26T19:18:37.026Z,3.10
2023-02-26T19:21:07.125Z,2.45
2023-02-26T19:23:36.639Z,3.30
2023-02-26T19:26:06.275Z,3.30
2023-02-26T19:28:38.359Z,4.38
2023-02-26T19:31:09.731Z,3.63
2023-02-26T19:33:45.450Z,4.43
2023-02-26T19:36:16.295Z,3.80
2023-02-26T19:38:47.637Z,2.42
2023-02-26T19:41:18.782Z,3.83
2023-02-26T19:43:50.859Z,2.22
2023-02-26T19:46:20.656Z,2.00
2023-02-26T19:48:50.177Z,4.22
2023-02-26T19:51:19.817Z,1.80
2023-02-26T19:53:49.271Z,3.05
2023-02-26T19:56:18.753Z,2.20
2023-02-26T19:58:50.902Z,2.72
2023-02-26T20:01:20.970Z,2.78
2023-02-26T20:03:51.225Z,3.10
2023-02-26T20:06:20.815Z,2.85
2023-02-26T20:08:50.303Z,3.20
2023-02-26T20:11:19.749Z,2.05
2023-02-26T20:13:51.935Z,3.33
2023-02-26T20:16:21.488Z,3.25
2023-02-26T20:18:50.951Z,2.72
2023-02-26T20:21:20.465Z,3.65
2023-02-26T20:23:50.071Z,3.25
2023-02-26T20:26:19.514Z,2.83
2023-02-26T20:28:51.577Z,3.22
2023-02-26T20:31:21.221Z,2.85
2023-02-26T20:33:50.747Z,3.42
2023-02-26T20:36:20.511Z,4.53
2023-02-26T20:38:49.982Z,3.72
2023-02-26T20:41:19.487Z,4.45
2023-02-26T20:43:51.696Z,2.38
2023-02-26T20:46:21.204Z,2.45
2023-02-26T20:48:50.766Z,4.78
2023-02-26T20:51:20.490Z,3.60
2023-02-26T20:53:51.490Z,3.53
2023-02-26T20:58:52.873Z,3.28
2023-02-26T21:01:22.311Z,4.03
2023-02-26T21:03:54.119Z,3.20
2023-02-26T21:06:24.052Z,4.10
2023-02-26T21:08:53.620Z,3.95
2023-02-26T21:11:23.584Z,2.80
2023-02-26T21:13:55.688Z,2.53
2023-02-26T21:16:25.309Z,3.17
2023-02-26T21:18:54.800Z,2.17
2023-02-26T21:21:24.321Z,3.15
2023-02-26T21:23:53.940Z,2.90
2023-02-26T21:26:27.315Z,3.70
2023-02-26T21:29:00.971Z,2.67
2023-02-26T21:31:30.722Z,3.65
2023-02-26T21:34:08.264Z,2.53
2023-02-26T21:36:47.304Z,4.57
2023-02-26T21:39:16.861Z,2.07
2023-02-26T21:41:46.401Z,3.58
2023-02-26T21:44:18.458Z,3.92
2023-02-26T21:46:47.981Z,4.05
2023-02-26T21:49:17.531Z,3.47
2023-02-26T21:51:46.991Z,3.88
2023-02-26T21:54:16.464Z,4.47
2023-02-26T21:56:46.025Z,3.92
2023-02-26T21:59:18.201Z,3.35
2023-02-26T22:01:47.680Z,3.10
2023-02-26T22:04:17.264Z,3.47
2023-02-26T22:06:46.784Z,4.78
2023-02-26T22:09:17.360Z,2.25
2023-02-26T22:11:46.855Z,2.60
2023-02-26T22:14:19.251Z,2.22
2023-02-26T22:16:48.835Z,3.25
2023-02-26T22:19:18.320Z,2.38
2023-02-26T22:21:47.769Z,5.55
2023-02-26T22:24:17.299Z,2.72
2023-02-26T22:26:48.940Z,2.95
2023-02-26T22:29:21.041Z,2.67
2023-02-26T22:31:51.078Z,2.75
2023-02-26T22:34:20.968Z,2.97
2023-02-26T22:36:52.204Z,3.13
2023-02-26T22:39:21.961Z,2.58
2023-02-26T22:41:51.528Z,1.95
2023-02-26T22:44:23.684Z,3.90
2023-02-26T22:46:53.170Z,3.85
2023-02-26T22:49:22.834Z,1.85
2023-02-26T22:51:52.294Z,3.63
2023-02-26T22:54:21.790Z,3.25
2023-02-26T22:56:51.391Z,3.10
2023-02-26T22:59:23.693Z,4.28
2023-02-26T23:01:53.195Z,3.85
2023-02-26T23:04:22.935Z,3.35
2023-02-26T23:06:52.506Z,3.75
2023-02-26T23:09:21.946Z,2.90
2023-02-26T23:11:51.481Z,3.08
2023-02-26T23:14:23.505Z,2.67
2023-02-26T23:16:53.030Z,4.25
2023-02-26T23:19:22.515Z,2.60
2023-02-26T23:21:52.030Z,2.17
2023-02-26T23:24:21.453Z,2.58
2023-02-26T23:26:51.031Z,5.00
2023-02-26T23:29:23.068Z,5.30
2023-02-26T23:31:52.743Z,3.97
2023-02-26T23:34:22.402Z,3.85
2023-02-26T23:36:51.885Z,4.35
2023-02-26T23:39:21.322Z,3.90
2023-02-26T23:41:50.882Z,3.65
2023-02-26T23:44:22.986Z,3.35
2023-02-26T23:46:52.536Z,2.45
2023-02-26T23:49:21.967Z,3.25
2023-02-26T23:51:51.409Z,4.15
2023-02-26T23:54:20.871Z,3.10
2023-02-26T23:56:50.330Z,4.97
2023-02-26T23:59:19.827Z,2.45
